Latest Weather Observations for Casey*

IDT60801

Issued at 6:31 am EDT Monday 30 March 2015 (issued every 30 minutes, with the page automatically refreshed every 10 minutes)

About weather observations | Map of weather stations | Latest weather observations for ANT | Other Formats
Station Details ID: 300017 Name: CASEY Lat: -66.28 Lon: 110.52 Height: 40.0 m
Data from the previous 72 hours. | See also: Recent months at Casey*
Date/Time
EDT
Temp
°C
App
Temp
°C
Dew
Point
Rel
Hum
%
Delta-T
°C
Wind Press
QNH
hPa
Press
MSL
hPa
Rain
since 9 am
mm
Dir
 
Spd
km/h
Gust
km/h
Spd
kts
Gust
kts
30/06:30am -9.9 -16.4 -13.0 78 - SSE 17 19 9 10 977.1 - -
30/06:00am -9.8 -16.3 -12.9 78 - SSE 17 20 9 11 977.2 - -
30/05:30am -9.5 -14.4 -12.0 82 - S 9 17 5 9 977.1 - -
30/05:00am -9.2 -14.1 -12.0 80 - SSE 9 11 5 6 977.1 977.4 -
30/04:30am -8.9 -14.5 -11.7 80 - S 13 15 7 8 977.2 - -
30/04:00am -8.7 -14.7 -11.5 80 - S 15 17 8 9 977.1 - -
30/03:30am -8.7 -14.7 -11.7 79 - SSE 15 17 8 9 977.1 - -
30/03:00am -7.9 -12.2 -11.9 73 - SE 6 11 3 6 977.0 - -
30/02:30am -8.2 -13.9 -12.2 73 - SE 13 15 7 8 976.9 - -
30/02:00am -8.4 -14.1 -11.9 76 - S 13 15 7 8 977.0 977.3 -
30/01:30am -7.6 -13.2 -11.4 74 - SSE 13 15 7 8 976.9 - -
30/01:00am -7.0 -12.6 -10.8 74 - S 13 15 7 8 976.9 - -
30/12:30am -5.4 -11.5 -8.1 81 - W 17 19 9 10 976.8 - -
30/12:00am -5.0 -10.0 -7.9 80 - W 11 15 6 8 976.7 - -
 
Date/Time
EDT
Temp
°C
App
Temp
°C
Dew
Point
Rel
Hum
%
Delta-T
°C
Wind Press
QNH
hPa
Press
MSL
hPa
Rain
since 9 am
mm
Dir
 
Spd
km/h
Gust
km/h
Spd
kts
Gust
kts
29/11:30pm -4.9 -9.5 -8.0 79 - WNW 9 13 5 7 976.7 - -
29/11:00pm -4.8 -10.2 -8.2 77 - N 13 17 7 9 976.6 976.9 -
29/10:30pm -4.9 -9.9 -7.8 80 - NE 11 15 6 8 976.5 - -
29/10:00pm -4.7 -10.1 -9.0 72 - N 13 17 7 9 976.3 - -
29/09:30pm -5.2 -12.0 -9.1 74 - NE 20 26 11 14 975.9 - -
29/09:00pm -4.3 -10.9 -8.9 70 - N 19 24 10 13 975.6 - -
29/08:30pm -4.1 -10.7 -8.6 71 - N 19 26 10 14 975.2 - -
29/08:00pm -3.8 -10.4 -9.0 67 - N 19 28 10 15 975.0 975.3 -
29/07:30pm -3.4 -9.3 -9.8 61 - N 15 20 8 11 974.8 - -
29/07:00pm -3.2 -9.1 -10.5 57 - N 15 20 8 11 974.6 - -
29/06:30pm -3.2 -9.1 -9.8 60 - N 15 20 8 11 974.7 - -
29/06:00pm -3.3 -8.4 -9.7 61 - N 11 17 6 9 974.7 - -
29/05:30pm -3.3 -7.5 -10.6 57 - NNW 6 7 3 4 974.7 - -
29/05:00pm -2.9 -7.9 -8.3 66 - NNW 11 15 6 8 974.7 975.0 -
29/04:30pm -2.6 -8.6 -11.6 50 - N 15 19 8 10 974.9 - -
29/04:00pm -2.7 -9.0 -10.0 57 - NE 17 20 9 11 974.8 - -
29/03:30pm -2.6 -8.5 -9.9 57 - NNE 15 19 8 10 974.7 - -
29/03:00pm -4.1 -7.2 -10.7 60 - CALM 0 6 0 3 975.0 - -
29/02:30pm -5.3 -12.2 -10.8 65 - SE 20 22 11 12 974.8 - -
29/02:00pm -3.7 -10.2 -12.6 50 - SSE 17 20 9 11 975.0 975.3 -
29/01:30pm -3.8 -8.7 -12.0 53 - ENE 9 13 5 7 975.1 - -
29/01:00pm -5.0 -11.0 -11.5 60 - S 15 20 8 11 975.1 - -
29/12:30pm -5.3 -12.2 -10.8 65 - S 20 26 11 14 975.0 - -
29/12:00pm -5.4 -13.1 -10.7 66 - SSW 24 28 13 15 974.8 - -
29/11:30am -5.6 -12.9 -10.7 67 - S 22 26 12 14 974.8 - -
29/11:00am -6.4 -14.0 -10.4 73 - S 24 28 13 15 974.7 975.0 -
29/10:30am -5.4 -13.1 -10.9 65 - S 24 30 13 16 974.7 - -
29/10:00am -5.7 -13.8 -10.8 67 - S 26 30 14 16 974.6 - -
29/09:30am -5.2 -13.7 -11.7 60 - S 28 33 15 18 974.6 - -
29/09:00am -4.8 -12.6 -12.7 54 - S 24 32 13 17 974.6 - -
29/08:30am -5.0 -13.9 -12.0 58 - S 30 37 16 20 974.7 - -
29/08:05am -2.2 -11.2 -14.6 38 - ESE 30 37 16 20 974.7 - -
29/08:00am -3.9 -14.2 -13.8 46 - SE 37 54 20 29 974.7 975.0 -
29/07:51am -4.1 -15.6 -13.7 47 - SE 43 54 23 29 974.5 - -
29/07:44am -4.3 -15.0 -14.2 46 - S 39 48 21 26 974.8 - -
29/07:37am -4.4 -13.4 -13.5 49 - SSW 30 48 16 26 975.3 - -
29/07:30am -4.7 -14.6 -13.0 52 - SSW 35 48 19 26 974.9 - -
29/07:08am -5.3 -13.8 -12.0 59 - S 28 52 15 28 975.0 - -
29/07:00am -5.2 -13.3 -11.7 60 - SSE 26 41 14 22 975.3 - -
29/06:50am -5.1 -12.8 -11.6 60 - ESE 24 43 13 23 975.4 - -
29/06:43am -5.3 -19.7 -11.2 63 - E 59 78 32 42 974.0 - -
29/06:30am -4.9 -20.4 -11.4 60 - E 65 80 35 43 973.3 - -
29/06:12am -4.8 -19.5 -10.7 63 - E 61 82 33 44 972.8 - -
29/06:00am -4.8 -20.6 -10.5 64 - E 67 80 36 43 973.1 - -
29/05:40am -4.3 -19.8 -10.7 61 - E 65 83 35 45 972.7 - -
29/05:30am -4.3 -19.8 -10.7 61 - E 65 82 35 44 973.2 - -
29/05:20am -4.5 -18.8 -9.9 66 - E 59 80 32 43 972.8 - -
29/05:19am -4.5 -17.1 -10.1 65 - E 50 67 27 36 973.5 - -
29/05:00am -4.9 -22.0 -10.1 67 - E 74 83 40 45 972.7 973.0 -
29/04:30am -4.7 -21.8 -10.1 66 - E 74 83 40 45 972.8 - -
29/04:00am -4.7 -21.8 -9.7 68 - E 74 87 40 47 972.8 - -
29/03:30am -4.6 -21.6 -8.9 72 - E 74 87 40 47 972.6 - -
29/03:00am -4.6 -20.3 -9.2 70 - E 67 78 36 42 973.0 - -
29/02:30am -4.5 -20.6 -9.1 70 - E 69 82 37 44 972.8 - -
29/02:00am -4.1 -20.4 -8.7 70 - E 70 80 38 43 972.8 973.1 -
29/01:30am -3.8 -19.9 -8.8 68 - E 69 80 37 43 972.5 - -
29/01:00am -3.6 -19.7 -8.6 68 - E 69 82 37 44 972.5 - -
29/12:30am -3.4 -19.5 -8.6 67 - E 69 80 37 43 972.8 - -
29/12:00am -3.4 -18.3 -8.3 69 - E 63 74 34 40 973.0 - -
 
Date/Time
EDT
Temp
°C
App
Temp
°C
Dew
Point
Rel
Hum
%
Delta-T
°C
Wind Press
QNH
hPa
Press
MSL
hPa
Rain
since 9 am
mm
Dir
 
Spd
km/h
Gust
km/h
Spd
kts
Gust
kts
28/11:30pm -2.8 -17.7 -8.4 65 - E 63 76 34 41 972.8 - -
28/11:00pm -3.1 -18.4 -8.7 65 - E 65 76 35 41 972.4 972.7 -
28/10:30pm -3.6 -19.3 -8.6 68 - E 67 76 36 41 972.2 - -
28/10:00pm -3.5 -19.7 -8.5 68 - E 70 80 38 43 972.0 - -
28/09:30pm -3.5 -20.5 -8.2 70 - E 74 83 40 45 971.7 - -
28/09:00pm -3.1 -20.8 -7.4 72 - E 78 89 42 48 970.9 - -
28/08:30pm -3.0 -20.3 -7.7 70 - E 76 89 41 48 970.8 - -
28/08:00pm -2.9 -20.9 -7.2 72 - E 80 93 43 50 970.5 970.8 -
28/07:30pm -2.4 -20.8 -7.1 70 - ENE 82 98 44 53 970.2 - -
28/07:15pm -2.6 -21.0 -6.9 72 - ENE 82 100 44 54 970.4 - -
28/07:00pm -2.5 -21.9 -7.2 70 - ENE 87 102 47 55 969.9 - -
28/06:30pm -2.9 -21.3 -7.2 72 - E 82 95 44 51 969.9 - -
28/06:00pm -3.2 -21.2 -7.2 74 - E 80 91 43 49 970.0 - -
28/05:30pm -3.2 -21.2 -7.2 74 - E 80 95 43 51 969.9 - -
28/05:00pm -3.1 -20.7 -7.2 73 - E 78 98 42 53 969.6 969.9 -
28/04:50pm -3.2 -20.5 -7.3 73 - E 76 95 41 51 970.2 - -
28/04:30pm -2.9 -20.5 -7.0 73 - E 78 91 42 49 969.6 - -
28/04:00pm -2.9 -19.8 -6.9 74 - E 74 85 40 46 969.9 - -
28/03:30pm -2.9 -20.1 -6.7 75 - E 76 89 41 48 969.6 - -
28/03:00pm -3.1 -19.9 -6.7 76 - E 74 85 40 46 969.6 - -
28/02:30pm -3.1 -21.0 -6.4 78 - E 80 91 43 49 969.4 - -
28/02:00pm -3.4 -23.8 -6.3 80 - E 93 102 50 55 968.4 968.7 -
28/01:38pm -3.8 -23.8 -5.8 86 - E 91 109 49 59 968.1 - -
28/01:30pm -3.8 -22.3 -6.1 84 - E 83 95 45 51 968.4 - -
28/01:00pm -3.7 -22.6 -6.5 81 - E 85 98 46 53 969.1 - -
28/12:30pm -3.6 -20.8 -6.7 79 - E 76 91 41 49 969.8 - -
28/12:00pm -3.3 -20.5 -6.7 77 - E 76 89 41 48 969.9 - -
28/11:30am -3.4 -19.9 -7.2 75 - E 72 83 39 45 970.4 - -
28/11:00am -3.3 -20.2 -7.1 75 - E 74 85 40 46 970.2 970.5 -
28/10:30am -3.1 -20.3 -6.5 77 - E 76 87 41 47 970.4 - -
28/10:00am -2.9 -20.5 -6.4 77 - E 78 95 42 51 970.2 - -
28/09:57am -3.1 -20.3 -6.2 79 - E 76 95 41 51 969.6 - -
28/09:30am -2.9 -19.7 -6.7 75 - E 74 89 40 48 970.1 - -
28/09:02am -2.9 -18.9 -6.0 79 - E 70 91 38 49 970.0 - -
28/09:00am -2.7 -18.6 -6.7 74 - E 69 82 37 44 970.4 - -
28/08:30am -3.5 -20.0 -6.9 77 - E 72 82 39 44 970.1 - -
28/08:00am -3.5 -20.7 -6.9 77 - E 76 87 41 47 970.6 970.9 -
28/07:30am -3.8 -20.3 -7.4 76 - E 72 83 39 45 970.3 - -
28/07:00am -4.0 -19.6 -7.6 76 - E 67 78 36 42 970.7 - -
28/06:43am -3.9 -18.3 -7.2 78 - E 61 80 33 43 971.0 - -
28/06:30am -3.9 -17.6 -7.5 76 - E 57 69 31 37 971.4 - -
28/06:00am -4.2 -18.6 -7.3 79 - E 61 69 33 37 971.5 - -
28/05:30am -3.9 -19.1 -7.0 79 - E 65 74 35 40 971.9 - -
28/05:00am -4.2 -20.3 -6.5 84 - E 70 80 38 43 971.6 971.9 -
28/04:30am -4.4 -22.3 -6.2 87 - E 80 91 43 49 970.8 - -
28/04:00am -4.4 -21.6 -6.1 88 - E 76 95 41 51 970.7 - -
28/03:58am -4.7 -21.9 -6.2 89 - E 76 95 41 51 970.9 - -
28/03:30am -4.8 -21.6 -6.5 88 - E 74 91 40 49 971.4 - -
28/03:08am -4.5 -21.6 -6.0 89 - E 76 95 41 51 970.9 - -
28/03:00am -5.3 -22.6 -7.1 87 - E 76 89 41 48 971.3 - -
28/02:30am -5.0 -21.8 -6.8 87 - E 74 85 40 46 971.5 - -
28/02:00am -5.1 -22.7 -6.9 87 - E 78 87 42 47 971.3 971.6 -
28/01:30am -5.5 -22.8 -7.2 88 - E 76 87 41 47 971.7 - -
28/01:00am -6.4 -22.6 -8.2 87 - E 70 82 38 44 972.1 - -
28/12:47am -6.0 -20.5 -7.8 87 - E 61 70 33 38 972.9 - -
28/12:37am -5.6 -16.3 -7.9 84 - ESE 41 56 22 30 973.7 - -
28/12:36am -5.5 -13.7 -7.9 83 - SE 28 50 15 27 973.8 - -
28/12:30am -5.5 -13.7 -8.2 81 - SSE 28 37 15 20 973.8 - -
28/12:15am -5.7 -14.7 -8.1 83 - SE 32 44 17 24 973.8 - -
28/12:13am -5.8 -16.8 -7.8 86 - ESE 43 52 23 28 973.7 - -
28/12:00am -5.8 -14.0 -8.1 84 - SSE 28 39 15 21 973.9 - -
 
Date/Time
EDT
Temp
°C
App
Temp
°C
Dew
Point
Rel
Hum
%
Delta-T
°C
Wind Press
QNH
hPa
Press
MSL
hPa
Rain
since 9 am
mm
Dir
 
Spd
km/h
Gust
km/h
Spd
kts
Gust
kts
27/11:44pm -5.7 -13.9 -8.1 83 - SSE 28 35 15 19 974.3 - -
27/11:40pm -6.0 -15.9 -8.0 86 - ESE 37 50 20 27 974.3 - -
27/11:30pm -5.9 -20.4 -8.0 85 - E 61 70 33 38 973.4 - -
27/11:00pm -5.8 -21.4 -7.9 85 - E 67 74 36 40 973.0 973.3 -
27/10:30pm -5.9 -21.9 -7.7 87 - E 69 76 37 41 973.0 - -
27/10:00pm -5.9 -20.4 -7.7 87 - E 61 72 33 39 973.4 - -
27/09:55pm -6.0 -20.5 -7.7 88 - E 61 69 33 37 973.7 - -
27/09:30pm -6.4 -17.5 -7.9 89 - E 43 59 23 32 974.6 - -
27/09:00pm -6.0 -16.6 -7.5 89 - E 41 61 22 33 974.0 - -
27/08:57pm -5.9 -15.4 -7.6 88 - E 35 54 19 29 974.2 - -
27/08:30pm -4.9 -12.2 -6.7 87 - S 24 33 13 18 974.2 - -
27/08:00pm -5.1 -12.8 -6.6 89 - SSE 26 33 14 18 974.3 974.6 -
27/07:30pm -5.4 -11.8 -6.6 91 - S 19 28 10 15 974.2 - -
27/07:20pm -5.5 -13.6 -6.6 92 - SE 28 46 15 25 974.3 - -
27/07:15pm -5.5 -16.1 -6.6 92 - E 41 46 22 25 974.1 - -
27/07:00pm -5.3 -19.6 -6.5 91 - E 61 74 33 40 973.2 - -
27/06:30pm -5.4 -21.8 -6.5 92 - E 72 80 39 43 972.2 - -
27/06:00pm -5.3 -22.5 -6.4 92 - ENE 76 85 41 46 971.8 - -
27/05:30pm -5.1 -22.3 -6.2 92 - ENE 76 87 41 47 972.1 - -
27/05:00pm -5.1 -22.3 -6.2 92 - ENE 76 89 41 48 971.8 972.1 -
27/04:30pm -5.4 -23.4 -6.5 92 - ENE 80 93 43 50 971.7 - -
27/04:00pm -5.3 -23.2 -6.2 93 - ENE 80 89 43 48 971.6 - -
27/03:30pm -5.6 -24.5 -6.5 93 - ENE 85 96 46 52 971.5 - -
27/03:00pm -6.0 -25.0 -7.1 92 - ENE 85 98 46 53 971.4 - -
27/02:30pm -6.3 -25.3 -7.4 92 - ENE 85 96 46 52 971.5 - -
27/02:00pm -6.3 -25.3 -7.4 92 - ENE 85 98 46 53 971.5 971.8 -
27/01:43pm -6.6 -25.2 -7.7 92 - ENE 83 102 45 55 971.5 - -
27/01:30pm -6.4 -24.8 -7.5 92 - ENE 82 96 44 52 971.4 - -
27/01:14pm -6.5 -24.2 -7.6 92 - ENE 78 96 42 52 971.9 - -
27/01:00pm -6.8 -24.9 -7.9 92 - ENE 80 93 43 50 971.9 - -
27/12:45pm -6.7 -25.3 -7.8 92 - ENE 83 102 45 55 971.8 - -
27/12:30pm -6.9 -25.4 -8.0 92 - ENE 82 98 44 53 971.6 - -
27/12:03pm -6.6 -23.9 -7.7 92 - ENE 76 95 41 51 972.1 - -
27/12:00pm -6.6 -23.9 -7.7 92 - ENE 76 93 41 50 972.2 - -
27/11:30am -7.3 -23.9 -8.4 92 - E 72 89 39 48 972.1 - -
27/11:23am -7.4 -24.0 -8.5 92 - E 72 91 39 49 972.3 - -
27/11:00am -7.2 -23.8 -8.3 92 - E 72 83 39 45 972.4 972.7 -
27/10:30am -7.4 -24.8 -8.5 92 - ENE 76 85 41 46 972.2 - -
27/10:00am -7.1 -23.1 -8.3 91 - E 69 91 37 49 972.1 - -
27/09:45am -7.0 -21.5 -8.5 89 - E 61 80 33 43 972.6 - -
27/09:39am -6.9 -20.7 -8.5 88 - ENE 57 69 31 37 973.7 - -
27/09:34am -6.6 -15.6 -8.4 87 - E 32 57 17 31 974.1 - -

Other Formats:

Comma delimited format used in spreadsheet applications
http://www.bom.gov.au/fwo/IDT60803/IDT60803.89611.axf

JavaScript Object Notation format (JSON) in row-major order
http://www.bom.gov.au/fwo/IDT60803/IDT60803.89611.json